createdAt,value
2022-10-04T00:02:05.933Z,67.26
2022-10-04T00:04:32.454Z,67.47
2022-10-04T00:06:58.816Z,67.26
2022-10-04T00:09:25.116Z,67.41
2022-10-04T00:11:51.384Z,67.10
2022-10-04T00:14:17.947Z,67.53
2022-10-04T00:16:44.313Z,67.44
2022-10-04T00:19:10.644Z,67.32
2022-10-04T00:21:36.924Z,67.15
2022-10-04T00:24:03.267Z,67.38
2022-10-04T00:26:29.720Z,67.55
2022-10-04T00:28:56.328Z,67.59
2022-10-04T00:31:22.855Z,67.61
2022-10-04T00:33:49.946Z,67.28
2022-10-04T00:36:16.220Z,67.20
2022-10-04T00:38:42.561Z,67.64
2022-10-04T00:41:08.840Z,67.35
2022-10-04T00:43:35.120Z,67.60
2022-10-04T00:46:01.454Z,67.28
2022-10-04T00:48:31.224Z,67.23
2022-10-04T00:50:58.153Z,67.16
2022-10-04T00:53:24.396Z,67.50
2022-10-04T00:55:50.841Z,67.17
2022-10-04T00:58:17.258Z,67.37
2022-10-04T01:00:43.595Z,67.48
2022-10-04T01:03:10.293Z,67.31
2022-10-04T01:05:36.559Z,67.43
2022-10-04T01:08:02.998Z,67.48
2022-10-04T01:10:29.329Z,67.70
2022-10-04T01:12:55.750Z,67.40
2022-10-04T01:15:22.431Z,67.48
2022-10-04T01:17:48.710Z,67.25
2022-10-04T01:20:15.031Z,67.18
2022-10-04T01:22:41.715Z,67.58
2022-10-04T01:25:08.025Z,67.36
2022-10-04T01:27:34.889Z,67.42
2022-10-04T01:30:01.205Z,67.33
2022-10-04T01:32:27.753Z,67.32
2022-10-04T01:34:54.067Z,67.56
2022-10-04T01:37:20.388Z,67.15
2022-10-04T01:39:46.744Z,67.70
2022-10-04T01:42:13.249Z,67.57
2022-10-04T01:44:39.601Z,67.79
2022-10-04T01:47:06.049Z,67.32
2022-10-04T01:49:32.738Z,67.62
2022-10-04T01:51:59.148Z,67.43
2022-10-04T01:54:25.453Z,67.36
2022-10-04T01:56:51.729Z,67.34
2022-10-04T01:59:18.090Z,67.38
2022-10-04T02:01:44.684Z,67.57
2022-10-04T02:04:11.256Z,67.41
2022-10-04T02:06:37.858Z,67.48
2022-10-04T02:09:04.382Z,67.33
2022-10-04T02:11:30.729Z,67.59
2022-10-04T02:13:57.144Z,67.42
2022-10-04T02:16:24.835Z,67.46
2022-10-04T02:18:51.334Z,67.37
2022-10-04T02:21:17.692Z,67.37
2022-10-04T02:23:43.994Z,67.44
2022-10-04T02:26:10.291Z,67.70
2022-10-04T02:28:36.720Z,67.52
2022-10-04T02:31:03.854Z,67.68
2022-10-04T02:33:30.295Z,67.35
2022-10-04T02:35:56.537Z,67.32
2022-10-04T02:38:23.101Z,67.56
2022-10-04T02:40:49.392Z,67.43
2022-10-04T02:43:15.662Z,67.42
2022-10-04T02:45:41.929Z,67.40
2022-10-04T02:48:08.303Z,67.89
2022-10-04T02:50:34.578Z,67.41
2022-10-04T02:53:00.846Z,67.48
2022-10-04T02:55:27.126Z,67.42
2022-10-04T02:57:53.617Z,67.29
2022-10-04T03:00:20.144Z,67.42
2022-10-04T03:02:46.438Z,67.44
2022-10-04T03:05:12.861Z,67.48
2022-10-04T03:07:39.121Z,67.53
2022-10-04T03:10:05.544Z,67.38
2022-10-04T03:12:31.805Z,67.29
2022-10-04T03:14:58.166Z,67.39
2022-10-04T03:17:24.502Z,67.50
2022-10-04T03:19:50.776Z,67.40
2022-10-04T03:22:17.062Z,67.52
2022-10-04T03:24:43.396Z,67.51
2022-10-04T03:27:09.668Z,67.50
2022-10-04T03:29:35.924Z,67.49
2022-10-04T03:32:02.200Z,67.29
2022-10-04T03:34:28.491Z,67.40
2022-10-04T03:36:54.811Z,67.59
2022-10-04T03:39:21.412Z,67.39
2022-10-04T03:41:47.857Z,67.66
2022-10-04T03:44:14.183Z,67.87
2022-10-04T03:46:40.443Z,67.67
2022-10-04T03:49:06.902Z,67.72
2022-10-04T03:51:33.278Z,67.32
2022-10-04T03:53:59.578Z,67.52
2022-10-04T03:56:25.839Z,67.61
2022-10-04T03:58:52.181Z,67.61
2022-10-04T04:01:18.552Z,67.62
2022-10-04T04:03:45.208Z,67.74
2022-10-04T04:06:11.455Z,67.73
2022-10-04T04:08:38.883Z,67.42
2022-10-04T04:11:05.683Z,67.37
2022-10-04T04:13:31.904Z,67.33
2022-10-04T04:15:58.258Z,67.36
2022-10-04T04:18:24.587Z,67.42
2022-10-04T04:20:50.933Z,67.59
2022-10-04T04:23:17.435Z,67.46
2022-10-04T04:25:43.824Z,67.34
2022-10-04T04:28:10.268Z,67.57
2022-10-04T04:30:36.516Z,67.53
2022-10-04T04:33:02.900Z,67.39
2022-10-04T04:35:29.192Z,67.25
2022-10-04T04:37:55.624Z,67.49
2022-10-04T04:40:21.864Z,67.45
2022-10-04T04:42:48.290Z,67.48
2022-10-04T04:45:14.574Z,67.47
2022-10-04T04:47:41.048Z,67.67
2022-10-04T04:50:07.462Z,67.70
2022-10-04T04:52:33.700Z,67.33
2022-10-04T04:55:00.071Z,67.40
2022-10-04T04:57:28.702Z,67.71
2022-10-04T04:59:54.990Z,67.37
2022-10-04T05:02:21.640Z,67.26
2022-10-04T05:04:48.272Z,67.55
2022-10-04T05:07:14.568Z,67.34
2022-10-04T05:09:40.941Z,67.40
2022-10-04T05:12:07.171Z,67.34
2022-10-04T05:14:33.697Z,67.31
2022-10-04T05:17:00.017Z,67.67
2022-10-04T05:19:26.564Z,67.29
2022-10-04T05:21:52.884Z,67.34
2022-10-04T05:24:19.183Z,67.68
2022-10-04T05:26:45.513Z,67.38
2022-10-04T05:29:11.816Z,67.70
2022-10-04T05:31:38.569Z,67.37
2022-10-04T05:34:04.862Z,67.70
2022-10-04T05:36:31.333Z,67.77
2022-10-04T05:38:57.700Z,67.46
2022-10-04T05:41:24.014Z,67.63
2022-10-04T05:43:50.378Z,67.85
2022-10-04T05:46:16.899Z,67.36
2022-10-04T05:48:43.316Z,67.46
2022-10-04T05:51:09.580Z,67.51
2022-10-04T05:53:35.883Z,67.55
2022-10-04T05:56:02.133Z,67.36
2022-10-04T05:58:28.413Z,67.64
2022-10-04T06:00:54.959Z,67.68
2022-10-04T06:03:21.261Z,67.58
2022-10-04T06:05:47.583Z,67.53
2022-10-04T06:08:13.860Z,67.63
2022-10-04T06:10:40.228Z,67.54
2022-10-04T06:13:07.017Z,67.64
2022-10-04T06:15:33.260Z,67.66
2022-10-04T06:17:59.740Z,67.67
2022-10-04T06:20:26.042Z,67.87
2022-10-04T06:22:52.420Z,67.73
2022-10-04T06:25:18.825Z,67.77
2022-10-04T06:27:45.434Z,67.79
2022-10-04T06:30:11.682Z,67.61
2022-10-04T06:32:37.983Z,67.73
2022-10-04T06:35:04.309Z,67.99
2022-10-04T06:37:30.609Z,67.69
2022-10-04T06:39:56.922Z,67.72
2022-10-04T06:42:23.167Z,67.82
2022-10-04T06:44:49.663Z,68.05
2022-10-04T06:47:16.229Z,67.60
2022-10-04T06:49:42.545Z,67.94
2022-10-04T06:52:08.805Z,67.95
2022-10-04T06:54:35.057Z,68.08
2022-10-04T06:57:01.423Z,67.80
2022-10-04T06:59:27.738Z,67.80
2022-10-04T07:01:54.004Z,68.00
2022-10-04T07:04:20.489Z,67.87
2022-10-04T07:06:46.747Z,67.90
2022-10-04T07:09:13.114Z,67.90
2022-10-04T07:11:39.595Z,68.02
2022-10-04T07:14:05.937Z,67.94
2022-10-04T07:16:32.199Z,67.90
2022-10-04T07:18:58.485Z,67.99
2022-10-04T07:21:24.841Z,68.03
2022-10-04T07:23:51.166Z,68.02
2022-10-04T07:26:17.501Z,68.17
2022-10-04T07:28:43.918Z,68.26
2022-10-04T07:31:10.334Z,68.32
2022-10-04T07:36:12.478Z,68.43
2022-10-04T07:38:39.086Z,68.07
2022-10-04T07:43:50.058Z,68.43
2022-10-04T07:46:16.394Z,68.22
2022-10-04T07:48:42.713Z,68.40
2022-10-04T07:51:09.264Z,68.21
2022-10-04T07:53:35.520Z,68.70
2022-10-04T07:56:01.782Z,68.28
2022-10-04T07:58:28.066Z,68.88
2022-10-04T08:00:54.412Z,68.58
2022-10-04T08:03:20.762Z,68.66
2022-10-04T08:05:47.276Z,68.42
2022-10-04T08:08:13.647Z,68.36
2022-10-04T08:10:40.235Z,68.56
2022-10-04T08:13:06.487Z,68.84
2022-10-04T08:15:32.837Z,68.82
2022-10-04T08:17:59.249Z,69.20
2022-10-04T08:20:25.537Z,68.93
2022-10-04T08:22:51.830Z,68.70
2022-10-04T08:25:18.175Z,69.19
2022-10-04T08:27:44.492Z,69.03
2022-10-04T08:30:11.165Z,68.61
2022-10-04T08:32:37.729Z,68.91
2022-10-04T08:35:04.088Z,68.75
2022-10-04T08:37:30.694Z,69.03
2022-10-04T08:39:56.981Z,68.61
2022-10-04T08:42:23.298Z,68.96
2022-10-04T08:44:49.566Z,69.09
2022-10-04T08:47:19.893Z,68.90
2022-10-04T08:49:48.030Z,69.12
2022-10-04T08:52:14.356Z,68.79
2022-10-04T08:54:40.685Z,68.86
2022-10-04T08:57:06.992Z,69.05
2022-10-04T08:59:33.264Z,68.89
2022-10-04T09:01:59.721Z,69.24
2022-10-04T09:04:26.066Z,69.00
2022-10-04T09:06:53.741Z,68.95
2022-10-04T09:09:20.305Z,69.20
2022-10-04T09:11:46.633Z,69.18
2022-10-04T09:14:12.975Z,69.02
2022-10-04T09:16:39.312Z,68.95
2022-10-04T09:19:05.648Z,69.35
2022-10-04T09:21:31.997Z,69.09
2022-10-04T09:23:58.349Z,68.78
2022-10-04T09:26:25.689Z,68.94
2022-10-04T09:28:51.995Z,68.92
2022-10-04T09:31:18.440Z,69.04
2022-10-04T09:33:44.978Z,69.16
2022-10-04T09:36:11.429Z,69.07
2022-10-04T09:38:37.862Z,69.24
2022-10-04T09:41:04.805Z,69.02
2022-10-04T09:43:31.090Z,69.30
2022-10-04T09:45:57.470Z,69.04
2022-10-04T09:48:23.923Z,69.01
2022-10-04T09:50:50.302Z,69.28
2022-10-04T09:53:16.646Z,69.27
2022-10-04T09:55:42.919Z,69.31
2022-10-04T09:58:09.270Z,69.30
2022-10-04T10:00:35.543Z,69.24
2022-10-04T10:03:02.034Z,69.42
2022-10-04T10:05:28.434Z,69.11
2022-10-04T10:07:54.717Z,69.37
2022-10-04T10:10:21.165Z,69.01
2022-10-04T10:12:47.546Z,69.33
2022-10-04T10:15:13.847Z,69.11
2022-10-04T10:17:40.179Z,68.91
2022-10-04T10:20:06.427Z,69.18
2022-10-04T10:22:32.746Z,68.93
2022-10-04T10:24:59.011Z,69.21
2022-10-04T10:27:25.310Z,68.98
2022-10-04T10:29:51.582Z,69.25
2022-10-04T10:32:17.892Z,69.00
2022-10-04T10:34:44.517Z,69.19
2022-10-04T10:37:10.971Z,69.01
2022-10-04T10:39:37.612Z,69.18
2022-10-04T10:42:03.928Z,69.09
2022-10-04T10:44:30.461Z,68.87
2022-10-04T10:46:56.925Z,68.84
2022-10-04T10:49:23.425Z,68.91
2022-10-04T10:51:51.344Z,68.85
2022-10-04T10:54:17.764Z,68.83
2022-10-04T10:56:44.312Z,68.88
2022-10-04T10:59:10.918Z,68.81
2022-10-04T11:01:37.911Z,69.14
2022-10-04T11:04:04.625Z,68.98
2022-10-04T11:06:31.297Z,68.76
2022-10-04T11:08:57.809Z,69.13
2022-10-04T11:11:24.176Z,69.17
2022-10-04T11:13:50.440Z,69.03
2022-10-04T11:16:16.735Z,68.81
2022-10-04T11:18:43.285Z,68.91
2022-10-04T11:21:09.724Z,69.12
2022-10-04T11:26:11.616Z,68.52
2022-10-04T11:28:38.028Z,69.05
2022-10-04T11:31:04.595Z,69.12
2022-10-04T11:33:31.082Z,68.95
2022-10-04T11:35:57.548Z,69.07
2022-10-04T11:38:23.809Z,68.60
2022-10-04T11:40:50.206Z,68.70
2022-10-04T11:43:16.482Z,68.48
2022-10-04T11:45:42.791Z,69.01
2022-10-04T11:48:09.102Z,68.55
2022-10-04T11:50:35.859Z,69.17
2022-10-04T11:53:02.170Z,68.68
2022-10-04T11:55:28.608Z,68.71
2022-10-04T11:57:54.929Z,69.03
2022-10-04T12:00:21.366Z,69.10
2022-10-04T12:02:47.622Z,68.84
2022-10-04T12:05:14.439Z,68.76
2022-10-04T12:07:40.779Z,68.74
2022-10-04T12:10:07.220Z,68.76
2022-10-04T12:12:33.944Z,69.02
2022-10-04T12:15:00.234Z,69.10
2022-10-04T12:17:26.574Z,68.91
2022-10-04T12:19:52.936Z,68.92
2022-10-04T12:22:19.221Z,68.71
2022-10-04T12:24:45.494Z,68.95
2022-10-04T12:27:11.773Z,68.72
2022-10-04T12:29:38.343Z,68.82
2022-10-04T12:32:04.797Z,68.70
2022-10-04T12:34:31.172Z,68.74
2022-10-04T12:36:57.564Z,68.98
2022-10-04T12:39:23.918Z,68.66
2022-10-04T12:41:50.238Z,68.66
2022-10-04T12:44:16.455Z,68.90
2022-10-04T12:46:43.138Z,69.01
2022-10-04T12:49:09.728Z,68.71
2022-10-04T12:51:35.995Z,69.21
2022-10-04T12:54:02.296Z,69.22
2022-10-04T12:56:28.648Z,68.96
2022-10-04T12:58:55.289Z,69.27
2022-10-04T13:01:22.323Z,69.13
2022-10-04T13:03:48.680Z,69.10
2022-10-04T13:06:14.954Z,68.89
2022-10-04T13:08:41.229Z,69.31
2022-10-04T13:11:07.808Z,68.97
2022-10-04T13:13:34.053Z,69.13
2022-10-04T13:18:46.906Z,68.92
2022-10-04T13:21:13.395Z,68.73
2022-10-04T13:23:39.629Z,68.88
2022-10-04T13:26:05.954Z,69.09
2022-10-04T13:28:32.670Z,68.86
2022-10-04T13:30:58.931Z,69.41
2022-10-04T13:33:25.288Z,68.95
2022-10-04T13:35:51.547Z,69.33
2022-10-04T13:38:18.110Z,69.18
2022-10-04T13:40:44.380Z,69.03
2022-10-04T13:43:10.696Z,69.45
2022-10-04T13:45:37.031Z,69.35
2022-10-04T13:48:03.362Z,69.60
2022-10-04T13:50:29.636Z,69.21
2022-10-04T13:52:55.959Z,69.18
2022-10-04T13:55:22.305Z,69.13
2022-10-04T13:57:48.682Z,69.13
2022-10-04T14:00:15.065Z,69.15
2022-10-04T14:02:42.132Z,69.36
2022-10-04T14:05:10.581Z,69.22
2022-10-04T14:07:37.216Z,69.44
2022-10-04T14:10:03.655Z,69.37
2022-10-04T14:12:29.945Z,69.49
2022-10-04T14:14:56.203Z,69.47
2022-10-04T14:17:22.545Z,69.44
2022-10-04T14:19:48.821Z,69.57
2022-10-04T14:22:15.164Z,69.86
2022-10-04T14:24:41.818Z,69.79
2022-10-04T14:27:08.037Z,69.52
2022-10-04T14:29:34.358Z,69.85
2022-10-04T14:32:00.804Z,69.77
2022-10-04T14:34:27.254Z,69.67
2022-10-04T14:36:53.669Z,69.66
2022-10-04T14:39:20.178Z,69.48
2022-10-04T14:41:46.626Z,69.75
2022-10-04T14:44:13.013Z,69.82
2022-10-04T14:46:39.656Z,69.91
2022-10-04T14:49:06.057Z,69.66
2022-10-04T14:51:32.409Z,69.52
2022-10-04T14:53:58.715Z,69.79
2022-10-04T14:56:25.016Z,69.63
2022-10-04T14:58:51.357Z,69.63
2022-10-04T15:01:17.725Z,69.65
2022-10-04T15:03:44.173Z,69.47
2022-10-04T15:06:10.576Z,69.96
2022-10-04T15:08:36.937Z,69.70
2022-10-04T15:11:03.197Z,69.90
2022-10-04T15:13:29.917Z,69.60
2022-10-04T15:15:56.294Z,69.85
2022-10-04T15:18:22.984Z,69.54
2022-10-04T15:20:49.261Z,70.19
2022-10-04T15:23:15.936Z,69.77
2022-10-04T15:25:42.268Z,69.67
2022-10-04T15:28:08.583Z,69.82
2022-10-04T15:30:35.045Z,69.34
2022-10-04T15:33:01.342Z,69.75
2022-10-04T15:35:27.917Z,69.50
2022-10-04T15:37:54.269Z,69.59
2022-10-04T15:40:20.566Z,69.27
2022-10-04T15:42:47.092Z,69.25
2022-10-04T15:45:13.348Z,69.16
2022-10-04T15:47:39.578Z,69.25
2022-10-04T15:50:06.043Z,69.39
2022-10-04T15:52:32.297Z,69.11
2022-10-04T15:54:58.689Z,69.00
2022-10-04T15:57:25.070Z,69.17
2022-10-04T15:59:51.685Z,69.22
2022-10-04T16:02:18.028Z,68.95
2022-10-04T16:04:44.446Z,69.19
2022-10-04T16:07:10.724Z,69.15
2022-10-04T16:09:37.028Z,69.23
2022-10-04T16:12:03.426Z,68.92
2022-10-04T16:14:29.737Z,68.97
2022-10-04T16:16:58.878Z,68.90
2022-10-04T16:19:25.164Z,68.85
2022-10-04T16:21:51.540Z,69.12
2022-10-04T16:24:17.888Z,68.86
2022-10-04T16:26:44.598Z,68.86
2022-10-04T16:29:11.577Z,69.05
2022-10-04T16:31:38.013Z,69.10
2022-10-04T16:34:04.308Z,68.73
2022-10-04T16:36:30.638Z,68.69
2022-10-04T16:38:56.936Z,69.04
2022-10-04T16:41:23.335Z,68.63
2022-10-04T16:43:49.611Z,68.94
2022-10-04T16:46:16.090Z,68.80
2022-10-04T16:48:42.715Z,68.86
2022-10-04T16:51:09.070Z,68.03
2022-10-04T16:53:35.449Z,69.02
2022-10-04T16:56:01.831Z,68.98
2022-10-04T16:58:28.071Z,69.01
2022-10-04T17:00:54.445Z,69.45
2022-10-04T17:03:20.765Z,69.38
2022-10-04T17:05:47.083Z,69.42
2022-10-04T17:08:13.566Z,69.13
2022-10-04T17:10:39.854Z,69.26
2022-10-04T17:13:06.234Z,69.55
2022-10-04T17:15:33.017Z,69.42
2022-10-04T17:17:59.369Z,69.25
2022-10-04T17:20:25.741Z,69.58
2022-10-04T17:22:52.004Z,69.49
2022-10-04T17:25:18.468Z,69.19
2022-10-04T17:27:45.601Z,69.13
2022-10-04T17:30:12.963Z,69.19
2022-10-04T17:32:39.524Z,69.04
2022-10-04T17:35:05.850Z,69.26
2022-10-04T17:37:32.297Z,69.21
2022-10-04T17:39:58.778Z,69.48
2022-10-04T17:42:25.084Z,69.62
2022-10-04T17:44:51.405Z,69.64
2022-10-04T17:47:22.900Z,69.29
2022-10-04T17:49:50.287Z,69.21
2022-10-04T17:52:16.629Z,69.29
2022-10-04T17:54:42.855Z,69.72
2022-10-04T17:57:09.262Z,69.58
2022-10-04T17:59:35.679Z,70.02
2022-10-04T18:02:01.993Z,69.54
2022-10-04T18:04:28.752Z,69.42
2022-10-04T18:06:55.137Z,69.40
2022-10-04T18:09:21.471Z,69.70
2022-10-04T18:11:47.919Z,69.73
2022-10-04T18:14:14.298Z,69.96
2022-10-04T18:16:40.541Z,69.90
2022-10-04T18:19:06.829Z,69.59
2022-10-04T18:21:33.138Z,69.75
2022-10-04T18:23:59.728Z,69.54
2022-10-04T18:26:26.135Z,70.00
2022-10-04T18:28:52.467Z,69.64
2022-10-04T18:31:19.216Z,70.14
2022-10-04T18:33:45.577Z,69.82
2022-10-04T18:36:11.966Z,69.68
2022-10-04T18:38:38.513Z,69.91
2022-10-04T18:41:04.900Z,70.08
2022-10-04T18:43:31.284Z,69.80
2022-10-04T18:45:57.508Z,69.82
2022-10-04T18:48:24.037Z,69.95
2022-10-04T18:50:50.423Z,69.88
2022-10-04T18:53:16.737Z,70.37
2022-10-04T18:55:43.954Z,70.25
2022-10-04T18:58:10.211Z,69.95
2022-10-04T19:00:36.525Z,70.29
2022-10-04T19:03:02.858Z,70.33
2022-10-04T19:05:29.201Z,70.29
2022-10-04T19:07:56.426Z,70.12
2022-10-04T19:10:22.846Z,70.34
2022-10-04T19:12:49.201Z,70.38
2022-10-04T19:15:15.920Z,70.44
2022-10-04T19:17:42.151Z,70.18
2022-10-04T19:20:08.632Z,70.42
2022-10-04T19:22:34.913Z,70.33
2022-10-04T19:25:01.339Z,70.29
2022-10-04T19:27:27.616Z,70.38
2022-10-04T19:29:54.208Z,70.29
2022-10-04T19:32:20.516Z,70.48
2022-10-04T19:34:46.903Z,70.72
2022-10-04T19:37:13.343Z,70.47
2022-10-04T19:39:39.610Z,70.41
2022-10-04T19:42:05.955Z,70.31
2022-10-04T19:44:33.210Z,70.32
2022-10-04T19:46:59.625Z,70.64
2022-10-04T19:49:25.905Z,70.53
2022-10-04T19:51:52.173Z,70.35
2022-10-04T19:54:18.693Z,70.80
2022-10-04T19:56:45.339Z,70.49
2022-10-04T19:59:11.997Z,70.79
2022-10-04T20:01:38.284Z,70.83
2022-10-04T20:04:04.632Z,70.47
2022-10-04T20:06:30.947Z,70.42
2022-10-04T20:09:02.233Z,70.58
2022-10-04T20:11:30.032Z,70.53
2022-10-04T20:13:56.331Z,70.56
2022-10-04T20:16:22.786Z,70.83
2022-10-04T20:18:49.199Z,70.58
2022-10-04T20:21:15.540Z,70.75
2022-10-04T20:23:42.046Z,70.48
2022-10-04T20:26:08.504Z,70.50
2022-10-04T20:28:35.189Z,70.86
2022-10-04T20:31:01.492Z,70.67
2022-10-04T20:33:29.903Z,70.53
2022-10-04T20:35:56.272Z,70.70
2022-10-04T20:38:32.575Z,70.81
2022-10-04T20:40:59.304Z,70.63
2022-10-04T20:43:25.610Z,70.52
2022-10-04T20:45:51.916Z,70.51
2022-10-04T20:48:18.204Z,70.42
2022-10-04T20:50:44.493Z,70.74
2022-10-04T20:53:10.796Z,70.67
2022-10-04T20:55:37.243Z,70.49
2022-10-04T20:58:03.633Z,70.42
2022-10-04T21:00:30.050Z,70.50
2022-10-04T21:02:56.521Z,70.73
2022-10-04T21:05:22.794Z,70.90
2022-10-04T21:07:49.194Z,70.91
2022-10-04T21:10:15.504Z,70.58
2022-10-04T21:12:41.803Z,70.76
2022-10-04T21:15:08.080Z,70.41
2022-10-04T21:17:34.417Z,70.83
2022-10-04T21:20:00.690Z,70.39
2022-10-04T21:22:27.038Z,70.68
2022-10-04T21:24:53.289Z,70.54
2022-10-04T21:27:19.566Z,70.25
2022-10-04T21:29:45.845Z,70.62
2022-10-04T21:32:12.232Z,70.49
2022-10-04T21:34:52.984Z,70.17
2022-10-04T21:37:19.773Z,70.11
2022-10-04T21:39:46.060Z,70.15
2022-10-04T21:42:12.530Z,70.30
2022-10-04T21:44:38.896Z,70.06
2022-10-04T21:47:05.228Z,70.21
2022-10-04T21:49:31.496Z,69.95
2022-10-04T21:51:57.801Z,69.98
2022-10-04T21:54:24.038Z,70.01
2022-10-04T21:56:50.314Z,70.31
2022-10-04T21:59:16.633Z,70.05
2022-10-04T22:01:42.892Z,69.86
2022-10-04T22:04:09.185Z,69.79
2022-10-04T22:06:35.561Z,70.16
2022-10-04T22:09:02.097Z,69.77
2022-10-04T22:11:28.664Z,70.01
2022-10-04T22:13:55.145Z,70.00
2022-10-04T22:16:21.654Z,69.53
2022-10-04T22:18:48.043Z,69.52
2022-10-04T22:21:14.289Z,69.61
2022-10-04T22:23:40.558Z,69.92
2022-10-04T22:26:06.857Z,69.77
2022-10-04T22:28:33.731Z,69.85
2022-10-04T22:31:00.016Z,69.73
2022-10-04T22:33:26.521Z,69.66
2022-10-04T22:35:53.043Z,69.33
2022-10-04T22:38:20.129Z,69.59
2022-10-04T22:40:46.610Z,69.61
2022-10-04T22:43:13.018Z,69.26
2022-10-04T22:45:39.688Z,69.39
2022-10-04T22:48:06.005Z,69.48
2022-10-04T22:50:32.312Z,69.21
2022-10-04T22:52:58.564Z,69.45
2022-10-04T22:55:24.844Z,69.13
2022-10-04T22:57:51.126Z,69.25
2022-10-04T23:00:17.626Z,69.01
2022-10-04T23:02:43.995Z,69.22
2022-10-04T23:05:10.559Z,68.87
2022-10-04T23:07:38.524Z,68.89
2022-10-04T23:10:05.053Z,68.79
2022-10-04T23:12:31.304Z,68.67
2022-10-04T23:14:57.555Z,69.04
2022-10-04T23:17:23.928Z,69.07
2022-10-04T23:19:50.265Z,69.06
2022-10-04T23:22:17.024Z,69.04
2022-10-04T23:24:43.479Z,68.74
2022-10-04T23:27:09.745Z,68.65
2022-10-04T23:29:36.076Z,68.99
2022-10-04T23:32:02.428Z,68.57
2022-10-04T23:34:28.754Z,68.96
2022-10-04T23:36:55.031Z,68.51
2022-10-04T23:39:21.338Z,68.51
2022-10-04T23:41:47.622Z,68.83
2022-10-04T23:44:13.845Z,69.00
2022-10-04T23:46:40.337Z,68.50
2022-10-04T23:49:06.721Z,68.49
2022-10-04T23:51:33.125Z,68.73
2022-10-04T23:53:59.513Z,68.87
2022-10-04T23:56:25.805Z,68.81
2022-10-04T23:58:52.401Z,68.50
